Meriden Markham Muni Information

FAA: MMK - ICAO: KMMK

Meriden Markham Muni (Airport) Location

State Connecticut
County New Haven
City Meriden
Meriden Markham Muni (Airport) is 3 miles southwest of Meriden, CT.
Latitude 41-30-31.3730N
Longitude 072-49-46.1220W
Elevation 103ft

Meriden Markham Muni METARs

METAR KMMK 281426Z AUTO 36007KT 10SM SCT025 OVC055 11/03 A2999 RMK AO2 T01110033
Altimeter 29.99"
Temperature 11.1°C (52.0°F)
Wind 360° at 7KT
Clouds scattered at 2,500ft overcast at 5,500ft
Visibility 10.0mi
Time observed: 2021-10-28T14:26:00Z

Meriden Markham Muni (Airport) Details

Status Operational
Activation April 1940
Ownership Public
Usage Public
Chart NEW YORK
ATC on-site No
Beacon schedule sunset-sunrise
Beacon color clear green

Meriden Markham Muni (Airport) Contacts

Owner CITY OF MERIDEN
Owner address WILMA PETRO, PURCHASING, CITY HALL; 142 E MAIN ST, MERIDEN, CT 06450
Owner phone (203) 630-4115
Manager MARK DITOMASSO
Manager address 141 OGDEN ROAD, COLCHESTER, CT 06415
Manager phone (860) 883-4272

Meriden Markham Muni Radio Frequencies

Meriden Markham Muni (Airport) Radio Frequencies

UNICOM 123.05
Common traffic advisory frequency (CTAF) 123.05